sensor_id;sensor_type;location;lat;lon;timestamp;temperature;humidity
54796;DHT22;40693;43.884;20.340;2023-04-03T00:01:10;307.80;2304.00
54796;DHT22;40693;43.884;20.340;2023-04-03T00:03:36;307.70;2304.00
54796;DHT22;40693;43.884;20.340;2023-04-03T00:06:03;307.60;2304.00
54796;DHT22;40693;43.884;20.340;2023-04-03T00:08:29;307.70;2304.00
54796;DHT22;40693;43.884;20.340;2023-04-03T00:10:56;307.70;2304.00
54796;DHT22;40693;43.884;20.340;2023-04-03T00:13:23;307.70;2304.00
54796;DHT22;40693;43.884;20.340;2023-04-03T00:15:48;307.70;2304.00
54796;DHT22;40693;43.884;20.340;2023-04-03T00:18:14;307.60;2304.00
54796;DHT22;40693;43.884;20.340;2023-04-03T00:20:41;307.70;2304.00
54796;DHT22;40693;43.884;20.340;2023-04-03T00:23:06;307.60;2304.00
54796;DHT22;40693;43.884;20.340;2023-04-03T00:25:32;307.60;2304.00
54796;DHT22;40693;43.884;20.340;2023-04-03T00:27:58;307.70;2304.00
54796;DHT22;40693;43.884;20.340;2023-04-03T00:30:24;307.70;2304.00
54796;DHT22;40693;43.884;20.340;2023-04-03T00:32:51;307.70;2304.00
54796;DHT22;40693;43.884;20.340;2023-04-03T00:35:18;307.70;2304.00
54796;DHT22;40693;43.884;20.340;2023-04-03T00:37:44;307.70;2304.00
54796;DHT22;40693;43.884;20.340;2023-04-03T00:40:12;307.70;2304.00
54796;DHT22;40693;43.884;20.340;2023-04-03T00:42:40;307.60;2304.00
54796;DHT22;40693;43.884;20.340;2023-04-03T00:47:32;307.60;2304.00
54796;DHT22;40693;43.884;20.340;2023-04-03T00:49:58;307.60;2304.00
54796;DHT22;40693;43.884;20.340;2023-04-03T00:52:28;307.60;2304.00
54796;DHT22;40693;43.884;20.340;2023-04-03T00:54:58;307.60;2304.00
54796;DHT22;40693;43.884;20.340;2023-04-03T00:57:27;307.60;2304.00
54796;DHT22;40693;43.884;20.340;2023-04-03T00:59:59;307.50;2304.00
54796;DHT22;40693;43.884;20.340;2023-04-03T01:02:25;307.60;2304.00
54796;DHT22;40693;43.884;20.340;2023-04-03T01:04:51;307.50;2304.00
54796;DHT22;40693;43.884;20.340;2023-04-03T01:07:24;307.50;2304.00
54796;DHT22;40693;43.884;20.340;2023-04-03T01:09:56;307.40;2304.00
54796;DHT22;40693;43.884;20.340;2023-04-03T01:14:57;307.30;2304.00
54796;DHT22;40693;43.884;20.340;2023-04-03T01:28:07;307.20;2304.00
54796;DHT22;40693;43.884;20.340;2023-04-03T01:30:40;307.30;2304.00
54796;DHT22;40693;43.884;20.340;2023-04-03T01:33:08;307.20;2304.00
54796;DHT22;40693;43.884;20.340;2023-04-03T01:35:33;282.50;2278.40
54796;DHT22;40693;43.884;20.340;2023-04-03T01:37:59;282.50;2278.40
54796;DHT22;40693;43.884;20.340;2023-04-03T01:40:25;282.50;2278.40
54796;DHT22;40693;43.884;20.340;2023-04-03T01:42:51;282.40;2278.40
54796;DHT22;40693;43.884;20.340;2023-04-03T01:45:17;282.40;2278.40
54796;DHT22;40693;43.884;20.340;2023-04-03T01:47:43;282.40;2278.40
54796;DHT22;40693;43.884;20.340;2023-04-03T01:50:08;282.50;2278.40
54796;DHT22;40693;43.884;20.340;2023-04-03T01:52:34;282.40;2278.40
54796;DHT22;40693;43.884;20.340;2023-04-03T01:55:00;282.50;2278.40
54796;DHT22;40693;43.884;20.340;2023-04-03T01:57:25;307.20;2304.00
54796;DHT22;40693;43.884;20.340;2023-04-03T01:59:51;307.20;2304.00
54796;DHT22;40693;43.884;20.340;2023-04-03T02:02:17;307.30;2304.00
54796;DHT22;40693;43.884;20.340;2023-04-03T02:04:43;307.30;2304.00
54796;DHT22;40693;43.884;20.340;2023-04-03T02:07:08;307.30;2304.00
54796;DHT22;40693;43.884;20.340;2023-04-03T02:09:34;307.40;2304.00
54796;DHT22;40693;43.884;20.340;2023-04-03T02:12:00;307.40;2304.00
54796;DHT22;40693;43.884;20.340;2023-04-03T02:14:26;307.40;2304.00
54796;DHT22;40693;43.884;20.340;2023-04-03T02:16:52;307.50;2304.00
54796;DHT22;40693;43.884;20.340;2023-04-03T02:19:18;307.60;2304.00
54796;DHT22;40693;43.884;20.340;2023-04-03T02:21:44;307.70;2304.00
54796;DHT22;40693;43.884;20.340;2023-04-03T02:24:10;307.70;2304.00
54796;DHT22;40693;43.884;20.340;2023-04-03T02:26:35;307.70;2304.00
54796;DHT22;40693;43.884;20.340;2023-04-03T02:29:01;307.70;2304.00
54796;DHT22;40693;43.884;20.340;2023-04-03T02:31:27;307.70;2304.00
54796;DHT22;40693;43.884;20.340;2023-04-03T02:33:52;307.70;2304.00
54796;DHT22;40693;43.884;20.340;2023-04-03T02:36:18;307.60;2304.00
54796;DHT22;40693;43.884;20.340;2023-04-03T02:38:44;307.60;2304.00
54796;DHT22;40693;43.884;20.340;2023-04-03T02:41:12;307.70;2304.00
54796;DHT22;40693;43.884;20.340;2023-04-03T02:43:38;307.60;2304.00
54796;DHT22;40693;43.884;20.340;2023-04-03T02:46:04;307.70;2304.00
54796;DHT22;40693;43.884;20.340;2023-04-03T02:48:30;307.70;2304.00
54796;DHT22;40693;43.884;20.340;2023-04-03T02:50:56;307.60;2304.00
54796;DHT22;40693;43.884;20.340;2023-04-03T02:53:22;307.70;2304.00
54796;DHT22;40693;43.884;20.340;2023-04-03T02:55:48;307.60;2304.00
54796;DHT22;40693;43.884;20.340;2023-04-03T02:58:14;307.60;2304.00
54796;DHT22;40693;43.884;20.340;2023-04-03T03:00:40;307.60;2304.00
54796;DHT22;40693;43.884;20.340;2023-04-03T03:03:06;307.60;2304.00
54796;DHT22;40693;43.884;20.340;2023-04-03T03:05:32;307.60;2304.00
54796;DHT22;40693;43.884;20.340;2023-04-03T03:07:57;307.70;2304.00
54796;DHT22;40693;43.884;20.340;2023-04-03T03:10:23;307.70;2304.00
54796;DHT22;40693;43.884;20.340;2023-04-03T03:12:49;307.80;2304.00
54796;DHT22;40693;43.884;20.340;2023-04-03T03:15:15;307.80;2304.00
54796;DHT22;40693;43.884;20.340;2023-04-03T03:17:43;307.80;2304.00
54796;DHT22;40693;43.884;20.340;2023-04-03T03:20:09;307.80;2304.00
54796;DHT22;40693;43.884;20.340;2023-04-03T03:22:35;307.90;2304.00
54796;DHT22;40693;43.884;20.340;2023-04-03T03:25:02;307.90;2304.00
54796;DHT22;40693;43.884;20.340;2023-04-03T03:27:28;307.80;2304.00
54796;DHT22;40693;43.884;20.340;2023-04-03T03:29:53;307.60;2304.00
54796;DHT22;40693;43.884;20.340;2023-04-03T03:32:19;307.40;2304.00
54796;DHT22;40693;43.884;20.340;2023-04-03T03:34:45;307.20;2304.00
54796;DHT22;40693;43.884;20.340;2023-04-03T03:37:11;282.40;2278.40
54796;DHT22;40693;43.884;20.340;2023-04-03T03:39:37;282.30;2278.40
54796;DHT22;40693;43.884;20.340;2023-04-03T03:42:03;282.20;2278.40
54796;DHT22;40693;43.884;20.340;2023-04-03T03:44:29;282.10;2278.40
54796;DHT22;40693;43.884;20.340;2023-04-03T03:46:55;282.00;2278.40
54796;DHT22;40693;43.884;20.340;2023-04-03T03:49:21;281.90;2278.40
54796;DHT22;40693;43.884;20.340;2023-04-03T03:51:47;281.80;2278.40
54796;DHT22;40693;43.884;20.340;2023-04-03T03:54:13;281.70;2278.40
54796;DHT22;40693;43.884;20.340;2023-04-03T03:56:39;281.60;2278.40
54796;DHT22;40693;43.884;20.340;2023-04-03T03:59:05;256.90;2252.80
54796;DHT22;40693;43.884;20.340;2023-04-03T04:01:31;256.80;2252.80
54796;DHT22;40693;43.884;20.340;2023-04-03T04:03:57;256.70;2252.80
54796;DHT22;40693;43.884;20.340;2023-04-03T04:06:23;256.70;2252.80
54796;DHT22;40693;43.884;20.340;2023-04-03T04:08:49;256.60;2252.80
54796;DHT22;40693;43.884;20.340;2023-04-03T04:11:14;256.60;2252.80
54796;DHT22;40693;43.884;20.340;2023-04-03T04:13:40;256.40;2252.80
54796;DHT22;40693;43.884;20.340;2023-04-03T04:16:06;256.30;2252.80
54796;DHT22;40693;43.884;20.340;2023-04-03T04:18:32;256.20;2252.80
54796;DHT22;40693;43.884;20.340;2023-04-03T04:20:58;256.10;2252.80
54796;DHT22;40693;43.884;20.340;2023-04-03T04:23:24;256.00;2252.80
54796;DHT22;40693;43.884;20.340;2023-04-03T04:25:50;256.00;2252.80
54796;DHT22;40693;43.884;20.340;2023-04-03T04:28:16;256.10;2252.80
54796;DHT22;40693;43.884;20.340;2023-04-03T04:30:42;256.00;2252.80
54796;DHT22;40693;43.884;20.340;2023-04-03T04:33:08;256.00;2252.80
54796;DHT22;40693;43.884;20.340;2023-04-03T04:35:34;231.30;2252.80
54796;DHT22;40693;43.884;20.340;2023-04-03T04:38:01;231.30;2252.80
54796;DHT22;40693;43.884;20.340;2023-04-03T04:40:28;231.30;2252.80
54796;DHT22;40693;43.884;20.340;2023-04-03T04:42:54;231.30;2252.80
54796;DHT22;40693;43.884;20.340;2023-04-03T04:45:19;231.20;2252.80
54796;DHT22;40693;43.884;20.340;2023-04-03T04:47:45;231.10;2252.80
54796;DHT22;40693;43.884;20.340;2023-04-03T04:50:11;231.00;2252.80
54796;DHT22;40693;43.884;20.340;2023-04-03T04:52:38;231.00;2252.80
54796;DHT22;40693;43.884;20.340;2023-04-03T04:55:04;230.90;2252.80
54796;DHT22;40693;43.884;20.340;2023-04-03T04:57:30;230.90;2252.80
54796;DHT22;40693;43.884;20.340;2023-04-03T04:59:56;230.90;2252.80
54796;DHT22;40693;43.884;20.340;2023-04-03T05:02:21;230.90;2252.80
54796;DHT22;40693;43.884;20.340;2023-04-03T05:04:47;230.90;2252.80
54796;DHT22;40693;43.884;20.340;2023-04-03T05:07:15;230.80;2252.80
54796;DHT22;40693;43.884;20.340;2023-04-03T05:09:41;230.80;2252.80
54796;DHT22;40693;43.884;20.340;2023-04-03T05:12:07;230.80;2252.80
54796;DHT22;40693;43.884;20.340;2023-04-03T05:14:33;230.90;2252.80
54796;DHT22;40693;43.884;20.340;2023-04-03T05:16:59;231.00;2252.80
54796;DHT22;40693;43.884;20.340;2023-04-03T05:19:24;231.00;2252.80
54796;DHT22;40693;43.884;20.340;2023-04-03T05:21:50;231.00;2252.80
54796;DHT22;40693;43.884;20.340;2023-04-03T05:24:16;231.10;2252.80
54796;DHT22;40693;43.884;20.340;2023-04-03T05:26:43;231.10;2252.80
54796;DHT22;40693;43.884;20.340;2023-04-03T05:29:09;231.10;2252.80
54796;DHT22;40693;43.884;20.340;2023-04-03T05:31:35;231.10;2252.80
54796;DHT22;40693;43.884;20.340;2023-04-03T05:34:01;230.70;2252.80
54796;DHT22;40693;43.884;20.340;2023-04-03T05:36:27;230.90;2252.80
54796;DHT22;40693;43.884;20.340;2023-04-03T05:38:53;230.80;2252.80
54796;DHT22;40693;43.884;20.340;2023-04-03T05:41:19;230.70;2252.80
54796;DHT22;40693;43.884;20.340;2023-04-03T05:43:46;230.60;2252.80
54796;DHT22;40693;43.884;20.340;2023-04-03T05:46:14;230.50;2252.80
54796;DHT22;40693;43.884;20.340;2023-04-03T05:48:41;230.50;2252.80
54796;DHT22;40693;43.884;20.340;2023-04-03T05:51:09;230.40;2252.80
54796;DHT22;40693;43.884;20.340;2023-04-03T05:53:39;205.70;2252.80
54796;DHT22;40693;43.884;20.340;2023-04-03T05:56:05;205.60;2252.80
54796;DHT22;40693;43.884;20.340;2023-04-03T05:58:31;205.60;2252.80
54796;DHT22;40693;43.884;20.340;2023-04-03T06:00:56;205.60;2252.80
54796;DHT22;40693;43.884;20.340;2023-04-03T06:03:23;205.50;2252.80
54796;DHT22;40693;43.884;20.340;2023-04-03T06:05:50;205.40;2252.80
54796;DHT22;40693;43.884;20.340;2023-04-03T06:08:15;205.40;2252.80
54796;DHT22;40693;43.884;20.340;2023-04-03T06:10:41;205.40;2252.80
54796;DHT22;40693;43.884;20.340;2023-04-03T06:13:07;205.40;2252.80
54796;DHT22;40693;43.884;20.340;2023-04-03T06:15:33;205.20;2252.80
54796;DHT22;40693;43.884;20.340;2023-04-03T06:17:59;205.10;2252.80
54796;DHT22;40693;43.884;20.340;2023-04-03T06:20:25;205.10;2252.80
54796;DHT22;40693;43.884;20.340;2023-04-03T06:22:51;205.10;2252.80
54796;DHT22;40693;43.884;20.340;2023-04-03T06:25:17;205.10;2252.80
54796;DHT22;40693;43.884;20.340;2023-04-03T06:27:44;205.00;2252.80
54796;DHT22;40693;43.884;20.340;2023-04-03T06:30:11;205.00;2252.80
54796;DHT22;40693;43.884;20.340;2023-04-03T06:32:37;205.00;2252.80
54796;DHT22;40693;43.884;20.340;2023-04-03T06:35:04;204.90;2252.80
54796;DHT22;40693;43.884;20.340;2023-04-03T06:37:30;205.00;2252.80
54796;DHT22;40693;43.884;20.340;2023-04-03T06:39:58;204.90;2252.80
54796;DHT22;40693;43.884;20.340;2023-04-03T06:42:23;204.90;2252.80
54796;DHT22;40693;43.884;20.340;2023-04-03T06:44:49;204.80;2252.80
54796;DHT22;40693;43.884;20.340;2023-04-03T06:47:16;204.90;2252.80
54796;DHT22;40693;43.884;20.340;2023-04-03T06:49:43;204.80;2252.80
54796;DHT22;40693;43.884;20.340;2023-04-03T06:52:09;204.80;2252.80
54796;DHT22;40693;43.884;20.340;2023-04-03T06:54:38;204.80;2252.80
54796;DHT22;40693;43.884;20.340;2023-04-03T06:57:03;204.80;2252.80
54796;DHT22;40693;43.884;20.340;2023-04-03T06:59:29;204.90;2252.80
54796;DHT22;40693;43.884;20.340;2023-04-03T07:01:55;204.90;2252.80
54796;DHT22;40693;43.884;20.340;2023-04-03T07:04:21;205.10;2252.80
54796;DHT22;40693;43.884;20.340;2023-04-03T07:06:47;205.00;2252.80
54796;DHT22;40693;43.884;20.340;2023-04-03T07:09:14;205.00;2252.80
54796;DHT22;40693;43.884;20.340;2023-04-03T07:11:40;205.00;2252.80
54796;DHT22;40693;43.884;20.340;2023-04-03T07:14:06;205.00;2252.80
54796;DHT22;40693;43.884;20.340;2023-04-03T07:16:34;204.90;2252.80
54796;DHT22;40693;43.884;20.340;2023-04-03T07:19:00;205.00;2252.80
54796;DHT22;40693;43.884;20.340;2023-04-03T07:21:27;205.00;2252.80
54796;DHT22;40693;43.884;20.340;2023-04-03T07:23:54;205.00;2252.80
54796;DHT22;40693;43.884;20.340;2023-04-03T07:26:20;205.00;2252.80
54796;DHT22;40693;43.884;20.340;2023-04-03T07:28:46;204.90;2252.80
54796;DHT22;40693;43.884;20.340;2023-04-03T07:31:15;204.90;2252.80
54796;DHT22;40693;43.884;20.340;2023-04-03T07:33:42;204.90;2252.80
54796;DHT22;40693;43.884;20.340;2023-04-03T07:36:10;180.10;2252.80
54796;DHT22;40693;43.884;20.340;2023-04-03T07:38:36;204.80;2252.80
54796;DHT22;40693;43.884;20.340;2023-04-03T07:41:03;204.80;2252.80
54796;DHT22;40693;43.884;20.340;2023-04-03T07:43:29;204.80;2252.80
54796;DHT22;40693;43.884;20.340;2023-04-03T07:45:54;180.10;2252.80
54796;DHT22;40693;43.884;20.340;2023-04-03T07:48:22;180.10;2252.80
54796;DHT22;40693;43.884;20.340;2023-04-03T07:50:48;180.10;2252.80
54796;DHT22;40693;43.884;20.340;2023-04-03T07:53:14;180.10;2252.80
54796;DHT22;40693;43.884;20.340;2023-04-03T07:55:40;180.00;2252.80
54796;DHT22;40693;43.884;20.340;2023-04-03T07:58:14;180.00;2252.80
54796;DHT22;40693;43.884;20.340;2023-04-03T08:00:40;180.00;2252.80
54796;DHT22;40693;43.884;20.340;2023-04-03T08:03:07;180.00;2252.80
54796;DHT22;40693;43.884;20.340;2023-04-03T08:05:45;180.00;2252.80
54796;DHT22;40693;43.884;20.340;2023-04-03T08:08:13;180.10;2252.80
54796;DHT22;40693;43.884;20.340;2023-04-03T08:10:40;180.10;2252.80
54796;DHT22;40693;43.884;20.340;2023-04-03T08:13:06;180.10;2252.80
54796;DHT22;40693;43.884;20.340;2023-04-03T08:15:33;204.80;2252.80
54796;DHT22;40693;43.884;20.340;2023-04-03T08:17:59;180.10;2252.80
54796;DHT22;40693;43.884;20.340;2023-04-03T08:20:26;180.10;2252.80
54796;DHT22;40693;43.884;20.340;2023-04-03T08:22:52;180.10;2252.80
54796;DHT22;40693;43.884;20.340;2023-04-03T08:25:18;180.10;2252.80
54796;DHT22;40693;43.884;20.340;2023-04-03T08:27:44;180.10;2252.80
54796;DHT22;40693;43.884;20.340;2023-04-03T08:30:10;180.00;2252.80
54796;DHT22;40693;43.884;20.340;2023-04-03T08:32:37;180.10;2252.80
54796;DHT22;40693;43.884;20.340;2023-04-03T08:35:04;180.10;2252.80
54796;DHT22;40693;43.884;20.340;2023-04-03T08:37:30;204.80;2252.80
54796;DHT22;40693;43.884;20.340;2023-04-03T08:39:56;204.80;2252.80
54796;DHT22;40693;43.884;20.340;2023-04-03T08:45:43;204.80;2252.80
54796;DHT22;40693;43.884;20.340;2023-04-03T08:48:20;204.80;2252.80
54796;DHT22;40693;43.884;20.340;2023-04-03T08:50:51;204.90;2252.80
54796;DHT22;40693;43.884;20.340;2023-04-03T08:53:20;204.90;2252.80
54796;DHT22;40693;43.884;20.340;2023-04-03T08:55:51;204.90;2252.80
54796;DHT22;40693;43.884;20.340;2023-04-03T08:58:19;204.90;2252.80
54796;DHT22;40693;43.884;20.340;2023-04-03T09:01:00;204.90;2252.80
54796;DHT22;40693;43.884;20.340;2023-04-03T09:03:33;205.00;2252.80
54796;DHT22;40693;43.884;20.340;2023-04-03T09:06:25;205.10;2252.80
54796;DHT22;40693;43.884;20.340;2023-04-03T09:09:14;205.20;2252.80
54796;DHT22;40693;43.884;20.340;2023-04-03T09:12:00;205.20;2252.80
54796;DHT22;40693;43.884;20.340;2023-04-03T09:17:15;205.30;2252.80
54796;DHT22;40693;43.884;20.340;2023-04-03T09:20:05;205.30;2252.80
54796;DHT22;40693;43.884;20.340;2023-04-03T09:22:35;205.30;2252.80
54796;DHT22;40693;43.884;20.340;2023-04-03T09:25:29;205.30;2252.80
54796;DHT22;40693;43.884;20.340;2023-04-03T09:27:59;205.40;2252.80
54796;DHT22;40693;43.884;20.340;2023-04-03T09:30:25;205.40;2252.80
54796;DHT22;40693;43.884;20.340;2023-04-03T09:32:53;205.30;2252.80
54796;DHT22;40693;43.884;20.340;2023-04-03T09:35:28;205.20;2252.80
54796;DHT22;40693;43.884;20.340;2023-04-03T09:38:00;205.30;2252.80
54796;DHT22;40693;43.884;20.340;2023-04-03T09:42:59;205.20;2252.80
54796;DHT22;40693;43.884;20.340;2023-04-03T09:45:35;205.20;2252.80
54796;DHT22;40693;43.884;20.340;2023-04-03T09:50:33;205.20;2252.80
54796;DHT22;40693;43.884;20.340;2023-04-03T09:53:07;205.20;2252.80
54796;DHT22;40693;43.884;20.340;2023-04-03T09:55:50;205.20;2252.80
54796;DHT22;40693;43.884;20.340;2023-04-03T09:58:37;205.20;2252.80
54796;DHT22;40693;43.884;20.340;2023-04-03T10:01:04;205.10;2252.80
54796;DHT22;40693;43.884;20.340;2023-04-03T10:03:34;205.10;2252.80
54796;DHT22;40693;43.884;20.340;2023-04-03T10:06:03;205.20;2252.80
54796;DHT22;40693;43.884;20.340;2023-04-03T10:08:33;205.20;2252.80
54796;DHT22;40693;43.884;20.340;2023-04-03T10:13:35;205.10;2252.80
54796;DHT22;40693;43.884;20.340;2023-04-03T10:16:10;205.00;2252.80
54796;DHT22;40693;43.884;20.340;2023-04-03T10:18:46;205.10;2252.80
54796;DHT22;40693;43.884;20.340;2023-04-03T10:21:19;205.10;2252.80
54796;DHT22;40693;43.884;20.340;2023-04-03T10:32:23;205.10;2252.80
54796;DHT22;40693;43.884;20.340;2023-04-03T10:46:11;205.00;2252.80
54796;DHT22;40693;43.884;20.340;2023-04-03T10:51:45;205.50;2252.80
54796;DHT22;40693;43.884;20.340;2023-04-03T10:54:29;205.40;2252.80
54796;DHT22;40693;43.884;20.340;2023-04-03T10:57:01;205.40;2252.80
54796;DHT22;40693;43.884;20.340;2023-04-03T10:59:35;205.40;2252.80
54796;DHT22;40693;43.884;20.340;2023-04-03T11:02:37;205.30;2252.80
54796;DHT22;40693;43.884;20.340;2023-04-03T11:07:53;205.30;2252.80
54796;DHT22;40693;43.884;20.340;2023-04-03T11:10:40;205.20;2252.80
54796;DHT22;40693;43.884;20.340;2023-04-03T11:15:53;205.30;2252.80
54796;DHT22;40693;43.884;20.340;2023-04-03T11:18:53;205.40;2252.80
54796;DHT22;40693;43.884;20.340;2023-04-03T11:24:03;205.30;2252.80
54796;DHT22;40693;43.884;20.340;2023-04-03T11:26:32;205.30;2252.80
54796;DHT22;40693;43.884;20.340;2023-04-03T11:29:12;205.30;2252.80
54796;DHT22;40693;43.884;20.340;2023-04-03T11:31:56;205.30;2252.80
54796;DHT22;40693;43.884;20.340;2023-04-03T11:34:37;205.30;2252.80
54796;DHT22;40693;43.884;20.340;2023-04-03T11:40:06;205.40;2252.80
54796;DHT22;40693;43.884;20.340;2023-04-03T11:42:37;205.40;2252.80
54796;DHT22;40693;43.884;20.340;2023-04-03T11:45:37;205.50;2252.80
54796;DHT22;40693;43.884;20.340;2023-04-03T11:48:51;205.40;2252.80
54796;DHT22;40693;43.884;20.340;2023-04-03T11:50:51;205.40;2252.80
54796;DHT22;40693;43.884;20.340;2023-04-03T11:59:14;205.40;2252.80
54796;DHT22;40693;43.884;20.340;2023-04-03T12:01:51;205.30;2252.80
54796;DHT22;40693;43.884;20.340;2023-04-03T12:04:20;205.30;2252.80
54796;DHT22;40693;43.884;20.340;2023-04-03T12:12:38;205.40;2252.80
54796;DHT22;40693;43.884;20.340;2023-04-03T12:17:47;205.50;2252.80
54796;DHT22;40693;43.884;20.340;2023-04-03T12:26:08;205.40;2252.80
54796;DHT22;40693;43.884;20.340;2023-04-03T12:28:45;205.40;2252.80
54796;DHT22;40693;43.884;20.340;2023-04-03T12:31:12;205.40;2252.80
54796;DHT22;40693;43.884;20.340;2023-04-03T12:36:28;205.60;2252.80
54796;DHT22;40693;43.884;20.340;2023-04-03T12:42:04;205.60;2252.80
54796;DHT22;40693;43.884;20.340;2023-04-03T12:44:46;205.60;2252.80
54796;DHT22;40693;43.884;20.340;2023-04-03T12:47:25;205.50;2252.80
54796;DHT22;40693;43.884;20.340;2023-04-03T12:49:53;205.50;2252.80
54796;DHT22;40693;43.884;20.340;2023-04-03T12:52:43;205.50;2252.80
54796;DHT22;40693;43.884;20.340;2023-04-03T12:55:20;205.60;2252.80
54796;DHT22;40693;43.884;20.340;2023-04-03T12:57:46;205.60;2252.80
54796;DHT22;40693;43.884;20.340;2023-04-03T13:00:42;205.60;2252.80
54796;DHT22;40693;43.884;20.340;2023-04-03T13:03:24;205.70;2252.80
54796;DHT22;40693;43.884;20.340;2023-04-03T13:05:50;205.70;2252.80
54796;DHT22;40693;43.884;20.340;2023-04-03T13:08:17;230.40;2252.80
54796;DHT22;40693;43.884;20.340;2023-04-03T13:10:56;230.50;2252.80
54796;DHT22;40693;43.884;20.340;2023-04-03T13:13:23;230.50;2252.80
54796;DHT22;40693;43.884;20.340;2023-04-03T13:15:49;230.50;2252.80
54796;DHT22;40693;43.884;20.340;2023-04-03T13:18:29;230.50;2252.80
54796;DHT22;40693;43.884;20.340;2023-04-03T13:21:13;230.50;2252.80
54796;DHT22;40693;43.884;20.340;2023-04-03T13:23:40;230.40;2252.80
54796;DHT22;40693;43.884;20.340;2023-04-03T13:26:08;230.50;2252.80
54796;DHT22;40693;43.884;20.340;2023-04-03T13:28:34;230.40;2252.80
54796;DHT22;40693;43.884;20.340;2023-04-03T13:31:08;230.40;2252.80
54796;DHT22;40693;43.884;20.340;2023-04-03T13:33:36;205.70;2252.80
54796;DHT22;40693;43.884;20.340;2023-04-03T13:36:27;230.40;2252.80
54796;DHT22;40693;43.884;20.340;2023-04-03T13:41:35;230.50;2252.80
54796;DHT22;40693;43.884;20.340;2023-04-03T13:46:56;230.60;2252.80
54796;DHT22;40693;43.884;20.340;2023-04-03T13:49:36;230.60;2252.80
54796;DHT22;40693;43.884;20.340;2023-04-03T13:52:25;230.60;2252.80
54796;DHT22;40693;43.884;20.340;2023-04-03T13:54:55;230.70;2252.80
54796;DHT22;40693;43.884;20.340;2023-04-03T13:57:21;230.40;2252.80
54796;DHT22;40693;43.884;20.340;2023-04-03T13:59:47;230.60;2252.80
54796;DHT22;40693;43.884;20.340;2023-04-03T14:02:15;230.60;2252.80
54796;DHT22;40693;43.884;20.340;2023-04-03T14:04:50;230.60;2252.80
54796;DHT22;40693;43.884;20.340;2023-04-03T14:07:19;230.70;2252.80
54796;DHT22;40693;43.884;20.340;2023-04-03T14:09:47;230.80;2252.80
54796;DHT22;40693;43.884;20.340;2023-04-03T14:12:45;230.80;2252.80
54796;DHT22;40693;43.884;20.340;2023-04-03T14:15:26;230.80;2252.80
54796;DHT22;40693;43.884;20.340;2023-04-03T14:17:53;230.80;2252.80
54796;DHT22;40693;43.884;20.340;2023-04-03T14:20:22;230.80;2252.80
54796;DHT22;40693;43.884;20.340;2023-04-03T14:22:48;230.80;2252.80
54796;DHT22;40693;43.884;20.340;2023-04-03T14:25:15;230.90;2252.80
54796;DHT22;40693;43.884;20.340;2023-04-03T14:27:45;230.80;2252.80
54796;DHT22;40693;43.884;20.340;2023-04-03T14:30:22;230.90;2252.80
54796;DHT22;40693;43.884;20.340;2023-04-03T14:32:48;230.90;2252.80
54796;DHT22;40693;43.884;20.340;2023-04-03T14:35:15;230.90;2252.80
54796;DHT22;40693;43.884;20.340;2023-04-03T14:37:41;230.90;2252.80
54796;DHT22;40693;43.884;20.340;2023-04-03T14:40:08;230.90;2252.80
54796;DHT22;40693;43.884;20.340;2023-04-03T14:42:36;230.80;2252.80
54796;DHT22;40693;43.884;20.340;2023-04-03T14:45:05;230.80;2252.80
54796;DHT22;40693;43.884;20.340;2023-04-03T14:47:31;230.80;2252.80
54796;DHT22;40693;43.884;20.340;2023-04-03T14:49:59;230.80;2252.80
54796;DHT22;40693;43.884;20.340;2023-04-03T14:52:31;230.80;2252.80
54796;DHT22;40693;43.884;20.340;2023-04-03T14:54:58;230.80;2252.80
54796;DHT22;40693;43.884;20.340;2023-04-03T14:57:25;230.80;2252.80
54796;DHT22;40693;43.884;20.340;2023-04-03T14:59:51;230.80;2252.80
54796;DHT22;40693;43.884;20.340;2023-04-03T15:02:33;230.80;2252.80
54796;DHT22;40693;43.884;20.340;2023-04-03T15:05:02;230.80;2252.80
54796;DHT22;40693;43.884;20.340;2023-04-03T15:07:31;230.80;2252.80
54796;DHT22;40693;43.884;20.340;2023-04-03T15:10:01;230.80;2252.80
54796;DHT22;40693;43.884;20.340;2023-04-03T15:12:27;230.80;2252.80
54796;DHT22;40693;43.884;20.340;2023-04-03T15:14:53;230.80;2252.80
54796;DHT22;40693;43.884;20.340;2023-04-03T15:17:21;230.80;2252.80
54796;DHT22;40693;43.884;20.340;2023-04-03T15:19:48;230.80;2252.80
54796;DHT22;40693;43.884;20.340;2023-04-03T15:22:15;230.80;2252.80
54796;DHT22;40693;43.884;20.340;2023-04-03T15:24:42;230.80;2252.80
54796;DHT22;40693;43.884;20.340;2023-04-03T15:27:09;230.80;2252.80
54796;DHT22;40693;43.884;20.340;2023-04-03T15:29:36;230.80;2252.80
54796;DHT22;40693;43.884;20.340;2023-04-03T15:32:02;230.80;2252.80
54796;DHT22;40693;43.884;20.340;2023-04-03T15:34:28;230.80;2252.80
54796;DHT22;40693;43.884;20.340;2023-04-03T15:36:54;230.80;2252.80
54796;DHT22;40693;43.884;20.340;2023-04-03T15:39:20;230.80;2252.80
54796;DHT22;40693;43.884;20.340;2023-04-03T15:41:46;230.90;2252.80
54796;DHT22;40693;43.884;20.340;2023-04-03T15:44:12;230.90;2252.80
54796;DHT22;40693;43.884;20.340;2023-04-03T15:46:39;230.90;2252.80
54796;DHT22;40693;43.884;20.340;2023-04-03T15:49:05;230.90;2252.80
54796;DHT22;40693;43.884;20.340;2023-04-03T15:51:31;230.90;2252.80
54796;DHT22;40693;43.884;20.340;2023-04-03T15:53:57;230.80;2252.80
54796;DHT22;40693;43.884;20.340;2023-04-03T15:56:22;230.80;2252.80
54796;DHT22;40693;43.884;20.340;2023-04-03T15:58:48;230.80;2252.80
54796;DHT22;40693;43.884;20.340;2023-04-03T16:01:14;230.80;2252.80
54796;DHT22;40693;43.884;20.340;2023-04-03T16:03:41;230.80;2252.80
54796;DHT22;40693;43.884;20.340;2023-04-03T16:06:17;230.80;2252.80
54796;DHT22;40693;43.884;20.340;2023-04-03T16:08:44;230.80;2252.80
54796;DHT22;40693;43.884;20.340;2023-04-03T16:11:11;230.80;2252.80
54796;DHT22;40693;43.884;20.340;2023-04-03T16:13:37;230.80;2252.80
54796;DHT22;40693;43.884;20.340;2023-04-03T16:16:04;230.80;2252.80
54796;DHT22;40693;43.884;20.340;2023-04-03T16:18:30;230.70;2252.80
54796;DHT22;40693;43.884;20.340;2023-04-03T16:20:56;230.70;2252.80